<?xml version="1.0" encoding="UTF-8" standalone="no" ?>
<gpx xmlns="http://www.topografix.com/GPX/1/1" xmlns:xsi="http://www.w3.org/2001/XMLSchema-instance" xsi:schemaLocation="http://www.topografix.com/GPX/1/1 http://www.topografix.com/GPX/1/1/gpx.xsd" version="1.1" creator="VisuGPX - https://www.visugpx.com">
  <metadata>
    <name>Ligny en boucle via i9</name>
  </metadata>
  <trk>
    <name><![CDATA[Maps3D 2021-04-25 02-56pm]]></name>
    <trkseg>
      <trkpt lat="50.51801" lon="4.57339">
        <ele>142.800354</ele>
        <time>2021-04-25T11:44:04Z</time>
      </trkpt>
      <trkpt lat="50.51814" lon="4.57341">
        <ele>143.293472</ele>
        <time>2021-04-25T11:44:37Z</time>
      </trkpt>
      <trkpt lat="50.51836" lon="4.5734">
        <ele>144.084045</ele>
        <time>2021-04-25T11:44:52Z</time>
      </trkpt>
      <trkpt lat="50.51857" lon="4.57345">
        <ele>144.836792</ele>
        <time>2021-04-25T11:45:08Z</time>
      </trkpt>
      <trkpt lat="50.51876" lon="4.57332">
        <ele>145.546082</ele>
        <time>2021-04-25T11:45:23Z</time>
      </trkpt>
      <trkpt lat="50.51896" lon="4.57332">
        <ele>146.256287</ele>
        <time>2021-04-25T11:45:38Z</time>
      </trkpt>
      <trkpt lat="50.51917" lon="4.57332">
        <ele>147.011169</ele>
        <time>2021-04-25T11:45:54Z</time>
      </trkpt>
      <trkpt lat="50.51938" lon="4.57336">
        <ele>147.513794</ele>
        <time>2021-04-25T11:46:10Z</time>
      </trkpt>
      <trkpt lat="50.51958" lon="4.57328">
        <ele>148.061035</ele>
        <time>2021-04-25T11:46:25Z</time>
      </trkpt>
      <trkpt lat="50.51979" lon="4.5732">
        <ele>148.647705</ele>
        <time>2021-04-25T11:46:40Z</time>
      </trkpt>
      <trkpt lat="50.51999" lon="4.5731">
        <ele>149.258301</ele>
        <time>2021-04-25T11:46:56Z</time>
      </trkpt>
      <trkpt lat="50.52017" lon="4.57297">
        <ele>149.956482</ele>
        <time>2021-04-25T11:47:11Z</time>
      </trkpt>
      <trkpt lat="50.52036" lon="4.57281">
        <ele>150.663361</ele>
        <time>2021-04-25T11:47:27Z</time>
      </trkpt>
      <trkpt lat="50.52053" lon="4.57271">
        <ele>151.17305</ele>
        <time>2021-04-25T11:47:42Z</time>
      </trkpt>
      <trkpt lat="50.52072" lon="4.57253">
        <ele>151.729324</ele>
        <time>2021-04-25T11:47:58Z</time>
      </trkpt>
      <trkpt lat="50.52086" lon="4.57229">
        <ele>152.027466</ele>
        <time>2021-04-25T11:48:14Z</time>
      </trkpt>
      <trkpt lat="50.52101" lon="4.57206">
        <ele>152.216431</ele>
        <time>2021-04-25T11:48:30Z</time>
      </trkpt>
      <trkpt lat="50.52112" lon="4.57193">
        <ele>152.349121</ele>
        <time>2021-04-25T11:49:02Z</time>
      </trkpt>
      <trkpt lat="50.52132" lon="4.57178">
        <ele>152.580872</ele>
        <time>2021-04-25T11:49:18Z</time>
      </trkpt>
      <trkpt lat="50.5215" lon="4.57165">
        <ele>152.777893</ele>
        <time>2021-04-25T11:49:34Z</time>
      </trkpt>
      <trkpt lat="50.52166" lon="4.57155">
        <ele>152.852844</ele>
        <time>2021-04-25T11:49:50Z</time>
      </trkpt>
      <trkpt lat="50.52187" lon="4.57143">
        <ele>152.965088</ele>
        <time>2021-04-25T11:50:06Z</time>
      </trkpt>
      <trkpt lat="50.52206" lon="4.57132">
        <ele>153.0625</ele>
        <time>2021-04-25T11:50:21Z</time>
      </trkpt>
      <trkpt lat="50.52229" lon="4.5712">
        <ele>153.194702</ele>
        <time>2021-04-25T11:50:37Z</time>
      </trkpt>
      <trkpt lat="50.52247" lon="4.57104">
        <ele>153.212463</ele>
        <time>2021-04-25T11:50:53Z</time>
      </trkpt>
      <trkpt lat="50.52267" lon="4.57093">
        <ele>153.316528</ele>
        <time>2021-04-25T11:51:08Z</time>
      </trkpt>
      <trkpt lat="50.52286" lon="4.57084">
        <ele>153.434143</ele>
        <time>2021-04-25T11:51:23Z</time>
      </trkpt>
      <trkpt lat="50.52306" lon="4.57071">
        <ele>153.527283</ele>
        <time>2021-04-25T11:51:39Z</time>
      </trkpt>
      <trkpt lat="50.52324" lon="4.57056">
        <ele>153.556641</ele>
        <time>2021-04-25T11:51:54Z</time>
      </trkpt>
      <trkpt lat="50.52343" lon="4.57043">
        <ele>153.45192</ele>
        <time>2021-04-25T11:52:10Z</time>
      </trkpt>
      <trkpt lat="50.52362" lon="4.5703">
        <ele>153.237793</ele>
        <time>2021-04-25T11:52:26Z</time>
      </trkpt>
      <trkpt lat="50.52381" lon="4.57019">
        <ele>153.093994</ele>
        <time>2021-04-25T11:52:41Z</time>
      </trkpt>
      <trkpt lat="50.52387" lon="4.56993">
        <ele>153.135681</ele>
        <time>2021-04-25T11:52:57Z</time>
      </trkpt>
      <trkpt lat="50.52381" lon="4.56964">
        <ele>153.686829</ele>
        <time>2021-04-25T11:53:13Z</time>
      </trkpt>
      <trkpt lat="50.52381" lon="4.56932">
        <ele>154.28064</ele>
        <time>2021-04-25T11:53:29Z</time>
      </trkpt>
      <trkpt lat="50.52376" lon="4.56895">
        <ele>154.897339</ele>
        <time>2021-04-25T11:53:45Z</time>
      </trkpt>
      <trkpt lat="50.52371" lon="4.56865">
        <ele>155.358963</ele>
        <time>2021-04-25T11:54:01Z</time>
      </trkpt>
      <trkpt lat="50.52367" lon="4.56843">
        <ele>155.643143</ele>
        <time>2021-04-25T11:54:16Z</time>
      </trkpt>
      <trkpt lat="50.52362" lon="4.5681">
        <ele>155.967041</ele>
        <time>2021-04-25T11:54:32Z</time>
      </trkpt>
      <trkpt lat="50.52355" lon="4.5677">
        <ele>156.27948</ele>
        <time>2021-04-25T11:54:48Z</time>
      </trkpt>
      <trkpt lat="50.52348" lon="4.56742">
        <ele>156.419373</ele>
        <time>2021-04-25T11:55:03Z</time>
      </trkpt>
      <trkpt lat="50.5234" lon="4.56716">
        <ele>156.535461</ele>
        <time>2021-04-25T11:55:19Z</time>
      </trkpt>
      <trkpt lat="50.52331" lon="4.56689">
        <ele>156.70636</ele>
        <time>2021-04-25T11:55:34Z</time>
      </trkpt>
      <trkpt lat="50.52318" lon="4.56655">
        <ele>156.840256</ele>
        <time>2021-04-25T11:55:50Z</time>
      </trkpt>
      <trkpt lat="50.52306" lon="4.56627">
        <ele>156.828827</ele>
        <time>2021-04-25T11:56:05Z</time>
      </trkpt>
      <trkpt lat="50.52294" lon="4.56601">
        <ele>156.901642</ele>
        <time>2021-04-25T11:56:20Z</time>
      </trkpt>
      <trkpt lat="50.52282" lon="4.56573">
        <ele>157</ele>
        <time>2021-04-25T11:56:36Z</time>
      </trkpt>
      <trkpt lat="50.5227" lon="4.5655">
        <ele>157</ele>
        <time>2021-04-25T11:56:51Z</time>
      </trkpt>
      <trkpt lat="50.52257" lon="4.56518">
        <ele>157</ele>
        <time>2021-04-25T11:57:06Z</time>
      </trkpt>
      <trkpt lat="50.52244" lon="4.56491">
        <ele>156.535202</ele>
        <time>2021-04-25T11:57:22Z</time>
      </trkpt>
      <trkpt lat="50.52233" lon="4.56464">
        <ele>155.48584</ele>
        <time>2021-04-25T11:57:38Z</time>
      </trkpt>
      <trkpt lat="50.52223" lon="4.56441">
        <ele>154.679108</ele>
        <time>2021-04-25T11:57:53Z</time>
      </trkpt>
      <trkpt lat="50.52213" lon="4.56418">
        <ele>154.020294</ele>
        <time>2021-04-25T11:58:08Z</time>
      </trkpt>
      <trkpt lat="50.522" lon="4.56395">
        <ele>153.791534</ele>
        <time>2021-04-25T11:58:24Z</time>
      </trkpt>
      <trkpt lat="50.5219" lon="4.56368">
        <ele>153.67453</ele>
        <time>2021-04-25T11:58:39Z</time>
      </trkpt>
      <trkpt lat="50.52181" lon="4.56333">
        <ele>153.664185</ele>
        <time>2021-04-25T11:58:54Z</time>
      </trkpt>
      <trkpt lat="50.52172" lon="4.56299">
        <ele>154.295959</ele>
        <time>2021-04-25T11:59:10Z</time>
      </trkpt>
      <trkpt lat="50.52164" lon="4.56272">
        <ele>154.646713</ele>
        <time>2021-04-25T11:59:25Z</time>
      </trkpt>
      <trkpt lat="50.52153" lon="4.56246">
        <ele>154.684616</ele>
        <time>2021-04-25T11:59:41Z</time>
      </trkpt>
      <trkpt lat="50.52141" lon="4.56217">
        <ele>154.499283</ele>
        <time>2021-04-25T11:59:57Z</time>
      </trkpt>
      <trkpt lat="50.52128" lon="4.56186">
        <ele>154.429153</ele>
        <time>2021-04-25T12:00:13Z</time>
      </trkpt>
      <trkpt lat="50.52112" lon="4.56155">
        <ele>154.205688</ele>
        <time>2021-04-25T12:00:29Z</time>
      </trkpt>
      <trkpt lat="50.52098" lon="4.56128">
        <ele>153.712708</ele>
        <time>2021-04-25T12:00:45Z</time>
      </trkpt>
      <trkpt lat="50.52085" lon="4.56101">
        <ele>153.235901</ele>
        <time>2021-04-25T12:01:01Z</time>
      </trkpt>
      <trkpt lat="50.52072" lon="4.56073">
        <ele>153.158646</ele>
        <time>2021-04-25T12:01:17Z</time>
      </trkpt>
      <trkpt lat="50.52058" lon="4.56043">
        <ele>153.453354</ele>
        <time>2021-04-25T12:01:33Z</time>
      </trkpt>
      <trkpt lat="50.52045" lon="4.56015">
        <ele>153.834015</ele>
        <time>2021-04-25T12:01:48Z</time>
      </trkpt>
      <trkpt lat="50.52032" lon="4.5599">
        <ele>153.910141</ele>
        <time>2021-04-25T12:02:03Z</time>
      </trkpt>
      <trkpt lat="50.52021" lon="4.55965">
        <ele>153.342346</ele>
        <time>2021-04-25T12:02:18Z</time>
      </trkpt>
      <trkpt lat="50.52009" lon="4.55938">
        <ele>152.621796</ele>
        <time>2021-04-25T12:02:33Z</time>
      </trkpt>
      <trkpt lat="50.51994" lon="4.55915">
        <ele>151.955078</ele>
        <time>2021-04-25T12:02:49Z</time>
      </trkpt>
      <trkpt lat="50.51979" lon="4.55884">
        <ele>151.205566</ele>
        <time>2021-04-25T12:03:04Z</time>
      </trkpt>
      <trkpt lat="50.51965" lon="4.55859">
        <ele>150.607544</ele>
        <time>2021-04-25T12:03:20Z</time>
      </trkpt>
      <trkpt lat="50.51953" lon="4.55833">
        <ele>149.990967</ele>
        <time>2021-04-25T12:03:35Z</time>
      </trkpt>
      <trkpt lat="50.51945" lon="4.55815">
        <ele>149.775879</ele>
        <time>2021-04-25T12:04:34Z</time>
      </trkpt>
      <trkpt lat="50.51932" lon="4.55792">
        <ele>149.498779</ele>
        <time>2021-04-25T12:04:50Z</time>
      </trkpt>
      <trkpt lat="50.5192" lon="4.55777">
        <ele>149.325073</ele>
        <time>2021-04-25T12:05:05Z</time>
      </trkpt>
      <trkpt lat="50.51906" lon="4.5575">
        <ele>148.867996</ele>
        <time>2021-04-25T12:05:20Z</time>
      </trkpt>
      <trkpt lat="50.51895" lon="4.55722">
        <ele>148.6539</ele>
        <time>2021-04-25T12:05:36Z</time>
      </trkpt>
      <trkpt lat="50.51886" lon="4.55693">
        <ele>148.371506</ele>
        <time>2021-04-25T12:05:52Z</time>
      </trkpt>
      <trkpt lat="50.51878" lon="4.55674">
        <ele>148.119537</ele>
        <time>2021-04-25T12:06:13Z</time>
      </trkpt>
      <trkpt lat="50.51869" lon="4.55647">
        <ele>147.503159</ele>
        <time>2021-04-25T12:06:28Z</time>
      </trkpt>
      <trkpt lat="50.51857" lon="4.55624">
        <ele>146.911972</ele>
        <time>2021-04-25T12:06:43Z</time>
      </trkpt>
      <trkpt lat="50.51843" lon="4.55597">
        <ele>146.309158</ele>
        <time>2021-04-25T12:06:59Z</time>
      </trkpt>
      <trkpt lat="50.51827" lon="4.5557">
        <ele>145.759567</ele>
        <time>2021-04-25T12:07:14Z</time>
      </trkpt>
      <trkpt lat="50.51812" lon="4.5554">
        <ele>145.089066</ele>
        <time>2021-04-25T12:07:30Z</time>
      </trkpt>
      <trkpt lat="50.51799" lon="4.55516">
        <ele>144.45636</ele>
        <time>2021-04-25T12:07:45Z</time>
      </trkpt>
      <trkpt lat="50.51786" lon="4.55495">
        <ele>143.864334</ele>
        <time>2021-04-25T12:08:00Z</time>
      </trkpt>
      <trkpt lat="50.51767" lon="4.55471">
        <ele>143.61911</ele>
        <time>2021-04-25T12:08:16Z</time>
      </trkpt>
      <trkpt lat="50.51748" lon="4.55454">
        <ele>143.448959</ele>
        <time>2021-04-25T12:08:32Z</time>
      </trkpt>
      <trkpt lat="50.51728" lon="4.5544">
        <ele>142.600754</ele>
        <time>2021-04-25T12:08:48Z</time>
      </trkpt>
      <trkpt lat="50.51708" lon="4.55424">
        <ele>141.51535</ele>
        <time>2021-04-25T12:09:04Z</time>
      </trkpt>
      <trkpt lat="50.51691" lon="4.55407">
        <ele>140.346649</ele>
        <time>2021-04-25T12:09:19Z</time>
      </trkpt>
      <trkpt lat="50.51673" lon="4.55387">
        <ele>139.054062</ele>
        <time>2021-04-25T12:09:34Z</time>
      </trkpt>
      <trkpt lat="50.51655" lon="4.55364">
        <ele>138.363831</ele>
        <time>2021-04-25T12:09:50Z</time>
      </trkpt>
      <trkpt lat="50.51639" lon="4.55341">
        <ele>138.089172</ele>
        <time>2021-04-25T12:10:06Z</time>
      </trkpt>
      <trkpt lat="50.51624" lon="4.55317">
        <ele>137.996628</ele>
        <time>2021-04-25T12:10:22Z</time>
      </trkpt>
      <trkpt lat="50.51611" lon="4.55316">
        <ele>137.926834</ele>
        <time>2021-04-25T12:10:43Z</time>
      </trkpt>
      <trkpt lat="50.5159" lon="4.55307">
        <ele>137.734589</ele>
        <time>2021-04-25T12:10:58Z</time>
      </trkpt>
      <trkpt lat="50.51571" lon="4.55297">
        <ele>137.695847</ele>
        <time>2021-04-25T12:11:14Z</time>
      </trkpt>
      <trkpt lat="50.5155" lon="4.55284">
        <ele>137.880539</ele>
        <time>2021-04-25T12:11:30Z</time>
      </trkpt>
      <trkpt lat="50.51529" lon="4.5527">
        <ele>138.229752</ele>
        <time>2021-04-25T12:11:46Z</time>
      </trkpt>
      <trkpt lat="50.51511" lon="4.55255">
        <ele>138.696945</ele>
        <time>2021-04-25T12:12:01Z</time>
      </trkpt>
      <trkpt lat="50.51493" lon="4.55236">
        <ele>139</ele>
        <time>2021-04-25T12:12:17Z</time>
      </trkpt>
      <trkpt lat="50.51473" lon="4.55215">
        <ele>139</ele>
        <time>2021-04-25T12:12:32Z</time>
      </trkpt>
      <trkpt lat="50.51454" lon="4.55197">
        <ele>139</ele>
        <time>2021-04-25T12:12:48Z</time>
      </trkpt>
      <trkpt lat="50.51437" lon="4.55177">
        <ele>139</ele>
        <time>2021-04-25T12:13:03Z</time>
      </trkpt>
      <trkpt lat="50.5142" lon="4.5515">
        <ele>138.790878</ele>
        <time>2021-04-25T12:13:19Z</time>
      </trkpt>
      <trkpt lat="50.5141" lon="4.5513">
        <ele>138.560974</ele>
        <time>2021-04-25T12:13:35Z</time>
      </trkpt>
      <trkpt lat="50.51415" lon="4.55094">
        <ele>138.127258</ele>
        <time>2021-04-25T12:13:51Z</time>
      </trkpt>
      <trkpt lat="50.51418" lon="4.55065">
        <ele>137.763184</ele>
        <time>2021-04-25T12:14:06Z</time>
      </trkpt>
      <trkpt lat="50.51427" lon="4.55031">
        <ele>137.252014</ele>
        <time>2021-04-25T12:14:22Z</time>
      </trkpt>
      <trkpt lat="50.51442" lon="4.54997">
        <ele>136.772186</ele>
        <time>2021-04-25T12:14:38Z</time>
      </trkpt>
      <trkpt lat="50.51451" lon="4.54972">
        <ele>137.397491</ele>
        <time>2021-04-25T12:14:53Z</time>
      </trkpt>
      <trkpt lat="50.51461" lon="4.54944">
        <ele>138.175354</ele>
        <time>2021-04-25T12:15:09Z</time>
      </trkpt>
      <trkpt lat="50.5147" lon="4.54916">
        <ele>139.018814</ele>
        <time>2021-04-25T12:15:25Z</time>
      </trkpt>
      <trkpt lat="50.5148" lon="4.54901">
        <ele>139.463409</ele>
        <time>2021-04-25T12:15:50Z</time>
      </trkpt>
      <trkpt lat="50.51492" lon="4.54872">
        <ele>140.494202</ele>
        <time>2021-04-25T12:16:05Z</time>
      </trkpt>
      <trkpt lat="50.51485" lon="4.54852">
        <ele>141.048767</ele>
        <time>2021-04-25T12:16:34Z</time>
      </trkpt>
      <trkpt lat="50.51464" lon="4.54835">
        <ele>141.105881</ele>
        <time>2021-04-25T12:16:49Z</time>
      </trkpt>
      <trkpt lat="50.51444" lon="4.54822">
        <ele>140.69371</ele>
        <time>2021-04-25T12:17:05Z</time>
      </trkpt>
      <trkpt lat="50.51425" lon="4.54809">
        <ele>140.433823</ele>
        <time>2021-04-25T12:17:20Z</time>
      </trkpt>
      <trkpt lat="50.51409" lon="4.54784">
        <ele>140.501648</ele>
        <time>2021-04-25T12:17:36Z</time>
      </trkpt>
      <trkpt lat="50.51398" lon="4.54755">
        <ele>140.717224</ele>
        <time>2021-04-25T12:17:52Z</time>
      </trkpt>
      <trkpt lat="50.51384" lon="4.54728">
        <ele>140.877258</ele>
        <time>2021-04-25T12:18:08Z</time>
      </trkpt>
      <trkpt lat="50.51368" lon="4.547">
        <ele>141.019897</ele>
        <time>2021-04-25T12:18:24Z</time>
      </trkpt>
      <trkpt lat="50.51354" lon="4.54692">
        <ele>140.947083</ele>
        <time>2021-04-25T12:18:39Z</time>
      </trkpt>
      <trkpt lat="50.51336" lon="4.54705">
        <ele>140.564941</ele>
        <time>2021-04-25T12:18:54Z</time>
      </trkpt>
      <trkpt lat="50.51315" lon="4.54722">
        <ele>139.898743</ele>
        <time>2021-04-25T12:19:09Z</time>
      </trkpt>
      <trkpt lat="50.51295" lon="4.54737">
        <ele>139.231689</ele>
        <time>2021-04-25T12:19:25Z</time>
      </trkpt>
      <trkpt lat="50.51278" lon="4.5476">
        <ele>138.556396</ele>
        <time>2021-04-25T12:19:41Z</time>
      </trkpt>
      <trkpt lat="50.51259" lon="4.54779">
        <ele>137.874634</ele>
        <time>2021-04-25T12:19:57Z</time>
      </trkpt>
      <trkpt lat="50.5124" lon="4.54799">
        <ele>137.192276</ele>
        <time>2021-04-25T12:20:13Z</time>
      </trkpt>
      <trkpt lat="50.5122" lon="4.54818">
        <ele>136.68512</ele>
        <time>2021-04-25T12:20:29Z</time>
      </trkpt>
      <trkpt lat="50.51203" lon="4.54838">
        <ele>136.525299</ele>
        <time>2021-04-25T12:20:44Z</time>
      </trkpt>
      <trkpt lat="50.51191" lon="4.54863">
        <ele>136.900879</ele>
        <time>2021-04-25T12:21:00Z</time>
      </trkpt>
      <trkpt lat="50.51179" lon="4.54895">
        <ele>137.511353</ele>
        <time>2021-04-25T12:21:16Z</time>
      </trkpt>
      <trkpt lat="50.51163" lon="4.5492">
        <ele>138.210526</ele>
        <time>2021-04-25T12:21:31Z</time>
      </trkpt>
      <trkpt lat="50.51145" lon="4.54942">
        <ele>139.335968</ele>
        <time>2021-04-25T12:21:46Z</time>
      </trkpt>
      <trkpt lat="50.51128" lon="4.54962">
        <ele>140.309814</ele>
        <time>2021-04-25T12:22:01Z</time>
      </trkpt>
      <trkpt lat="50.51111" lon="4.54983">
        <ele>141.192657</ele>
        <time>2021-04-25T12:22:16Z</time>
      </trkpt>
      <trkpt lat="50.51093" lon="4.55003">
        <ele>141.925385</ele>
        <time>2021-04-25T12:22:32Z</time>
      </trkpt>
      <trkpt lat="50.51076" lon="4.55022">
        <ele>142.2854</ele>
        <time>2021-04-25T12:22:48Z</time>
      </trkpt>
      <trkpt lat="50.51059" lon="4.55045">
        <ele>142.696976</ele>
        <time>2021-04-25T12:23:03Z</time>
      </trkpt>
      <trkpt lat="50.51043" lon="4.55068">
        <ele>143.220978</ele>
        <time>2021-04-25T12:23:19Z</time>
      </trkpt>
      <trkpt lat="50.51026" lon="4.5509">
        <ele>143.829559</ele>
        <time>2021-04-25T12:23:34Z</time>
      </trkpt>
      <trkpt lat="50.51009" lon="4.55114">
        <ele>144.586487</ele>
        <time>2021-04-25T12:23:50Z</time>
      </trkpt>
      <trkpt lat="50.50989" lon="4.55135">
        <ele>145.022293</ele>
        <time>2021-04-25T12:24:06Z</time>
      </trkpt>
      <trkpt lat="50.50971" lon="4.55159">
        <ele>145.14621</ele>
        <time>2021-04-25T12:24:22Z</time>
      </trkpt>
      <trkpt lat="50.50955" lon="4.55179">
        <ele>144.929077</ele>
        <time>2021-04-25T12:24:37Z</time>
      </trkpt>
      <trkpt lat="50.50936" lon="4.552">
        <ele>144.466553</ele>
        <time>2021-04-25T12:24:53Z</time>
      </trkpt>
      <trkpt lat="50.50918" lon="4.55219">
        <ele>144.039185</ele>
        <time>2021-04-25T12:25:09Z</time>
      </trkpt>
      <trkpt lat="50.50899" lon="4.55239">
        <ele>143.791199</ele>
        <time>2021-04-25T12:25:25Z</time>
      </trkpt>
      <trkpt lat="50.50881" lon="4.55254">
        <ele>143.594391</ele>
        <time>2021-04-25T12:25:40Z</time>
      </trkpt>
      <trkpt lat="50.50862" lon="4.55272">
        <ele>143.432343</ele>
        <time>2021-04-25T12:25:56Z</time>
      </trkpt>
      <trkpt lat="50.50842" lon="4.55292">
        <ele>143.160858</ele>
        <time>2021-04-25T12:26:12Z</time>
      </trkpt>
      <trkpt lat="50.50823" lon="4.55312">
        <ele>142.838501</ele>
        <time>2021-04-25T12:26:28Z</time>
      </trkpt>
      <trkpt lat="50.50805" lon="4.5533">
        <ele>142.650635</ele>
        <time>2021-04-25T12:26:43Z</time>
      </trkpt>
      <trkpt lat="50.50788" lon="4.5535">
        <ele>142.457825</ele>
        <time>2021-04-25T12:26:58Z</time>
      </trkpt>
      <trkpt lat="50.50768" lon="4.55368">
        <ele>142.218506</ele>
        <time>2021-04-25T12:27:14Z</time>
      </trkpt>
      <trkpt lat="50.5075" lon="4.55388">
        <ele>141.992432</ele>
        <time>2021-04-25T12:27:30Z</time>
      </trkpt>
      <trkpt lat="50.50732" lon="4.5541">
        <ele>141.560059</ele>
        <time>2021-04-25T12:27:46Z</time>
      </trkpt>
      <trkpt lat="50.50715" lon="4.55429">
        <ele>141.133118</ele>
        <time>2021-04-25T12:28:01Z</time>
      </trkpt>
      <trkpt lat="50.50696" lon="4.55452">
        <ele>140.833572</ele>
        <time>2021-04-25T12:28:17Z</time>
      </trkpt>
      <trkpt lat="50.5068" lon="4.55473">
        <ele>140.776917</ele>
        <time>2021-04-25T12:28:32Z</time>
      </trkpt>
      <trkpt lat="50.50664" lon="4.55499">
        <ele>140.896317</ele>
        <time>2021-04-25T12:28:48Z</time>
      </trkpt>
      <trkpt lat="50.50652" lon="4.55528">
        <ele>140.479431</ele>
        <time>2021-04-25T12:29:04Z</time>
      </trkpt>
      <trkpt lat="50.50639" lon="4.55558">
        <ele>139.99585</ele>
        <time>2021-04-25T12:29:20Z</time>
      </trkpt>
      <trkpt lat="50.50626" lon="4.55587">
        <ele>139.496887</ele>
        <time>2021-04-25T12:29:36Z</time>
      </trkpt>
      <trkpt lat="50.50615" lon="4.55613">
        <ele>138.773743</ele>
        <time>2021-04-25T12:29:52Z</time>
      </trkpt>
      <trkpt lat="50.50606" lon="4.55642">
        <ele>138.09845</ele>
        <time>2021-04-25T12:30:08Z</time>
      </trkpt>
      <trkpt lat="50.50592" lon="4.5567">
        <ele>137.260803</ele>
        <time>2021-04-25T12:30:24Z</time>
      </trkpt>
      <trkpt lat="50.50576" lon="4.55696">
        <ele>136.410217</ele>
        <time>2021-04-25T12:30:40Z</time>
      </trkpt>
      <trkpt lat="50.50558" lon="4.55716">
        <ele>135.679138</ele>
        <time>2021-04-25T12:30:55Z</time>
      </trkpt>
      <trkpt lat="50.50542" lon="4.55739">
        <ele>135.06662</ele>
        <time>2021-04-25T12:31:11Z</time>
      </trkpt>
      <trkpt lat="50.50526" lon="4.55766">
        <ele>134.427551</ele>
        <time>2021-04-25T12:31:27Z</time>
      </trkpt>
      <trkpt lat="50.50518" lon="4.55785">
        <ele>134.018066</ele>
        <time>2021-04-25T12:32:00Z</time>
      </trkpt>
      <trkpt lat="50.5052" lon="4.5581">
        <ele>133.754761</ele>
        <time>2021-04-25T12:32:15Z</time>
      </trkpt>
      <trkpt lat="50.50521" lon="4.55832">
        <ele>133.514709</ele>
        <time>2021-04-25T12:32:55Z</time>
      </trkpt>
      <trkpt lat="50.50522" lon="4.55866">
        <ele>133.820007</ele>
        <time>2021-04-25T12:33:10Z</time>
      </trkpt>
      <trkpt lat="50.50525" lon="4.55897">
        <ele>134.128387</ele>
        <time>2021-04-25T12:33:25Z</time>
      </trkpt>
      <trkpt lat="50.50536" lon="4.55927">
        <ele>134.517944</ele>
        <time>2021-04-25T12:33:41Z</time>
      </trkpt>
      <trkpt lat="50.50547" lon="4.55954">
        <ele>134.701843</ele>
        <time>2021-04-25T12:33:57Z</time>
      </trkpt>
      <trkpt lat="50.50562" lon="4.55979">
        <ele>134.565689</ele>
        <time>2021-04-25T12:34:12Z</time>
      </trkpt>
      <trkpt lat="50.50574" lon="4.5601">
        <ele>134.349899</ele>
        <time>2021-04-25T12:34:28Z</time>
      </trkpt>
      <trkpt lat="50.50581" lon="4.56028">
        <ele>134.4021</ele>
        <time>2021-04-25T12:34:56Z</time>
      </trkpt>
      <trkpt lat="50.50594" lon="4.56054">
        <ele>134.776001</ele>
        <time>2021-04-25T12:35:11Z</time>
      </trkpt>
      <trkpt lat="50.5061" lon="4.56079">
        <ele>135.261719</ele>
        <time>2021-04-25T12:35:27Z</time>
      </trkpt>
      <trkpt lat="50.50625" lon="4.56102">
        <ele>135.840973</ele>
        <time>2021-04-25T12:35:42Z</time>
      </trkpt>
      <trkpt lat="50.50641" lon="4.56127">
        <ele>136.381531</ele>
        <time>2021-04-25T12:35:58Z</time>
      </trkpt>
      <trkpt lat="50.50657" lon="4.56152">
        <ele>136.797165</ele>
        <time>2021-04-25T12:36:14Z</time>
      </trkpt>
      <trkpt lat="50.50669" lon="4.56179">
        <ele>137.071869</ele>
        <time>2021-04-25T12:36:29Z</time>
      </trkpt>
      <trkpt lat="50.50683" lon="4.56204">
        <ele>137.512756</ele>
        <time>2021-04-25T12:36:45Z</time>
      </trkpt>
      <trkpt lat="50.507" lon="4.56231">
        <ele>137.878754</ele>
        <time>2021-04-25T12:37:01Z</time>
      </trkpt>
      <trkpt lat="50.50714" lon="4.56259">
        <ele>138.121033</ele>
        <time>2021-04-25T12:37:17Z</time>
      </trkpt>
      <trkpt lat="50.50729" lon="4.56287">
        <ele>138.274399</ele>
        <time>2021-04-25T12:37:33Z</time>
      </trkpt>
      <trkpt lat="50.50744" lon="4.56312">
        <ele>138.221924</ele>
        <time>2021-04-25T12:37:48Z</time>
      </trkpt>
      <trkpt lat="50.50761" lon="4.56338">
        <ele>137.72644</ele>
        <time>2021-04-25T12:38:04Z</time>
      </trkpt>
      <trkpt lat="50.50777" lon="4.56364">
        <ele>137.34729</ele>
        <time>2021-04-25T12:38:20Z</time>
      </trkpt>
      <trkpt lat="50.50794" lon="4.56387">
        <ele>136.948975</ele>
        <time>2021-04-25T12:38:35Z</time>
      </trkpt>
      <trkpt lat="50.50811" lon="4.56411">
        <ele>136.544067</ele>
        <time>2021-04-25T12:38:50Z</time>
      </trkpt>
      <trkpt lat="50.50829" lon="4.56435">
        <ele>136.093567</ele>
        <time>2021-04-25T12:39:06Z</time>
      </trkpt>
      <trkpt lat="50.50847" lon="4.56458">
        <ele>135.75679</ele>
        <time>2021-04-25T12:39:22Z</time>
      </trkpt>
      <trkpt lat="50.50865" lon="4.56479">
        <ele>135.533417</ele>
        <time>2021-04-25T12:39:37Z</time>
      </trkpt>
      <trkpt lat="50.50882" lon="4.56503">
        <ele>135.402435</ele>
        <time>2021-04-25T12:39:53Z</time>
      </trkpt>
      <trkpt lat="50.50898" lon="4.56524">
        <ele>135.162048</ele>
        <time>2021-04-25T12:40:08Z</time>
      </trkpt>
      <trkpt lat="50.50915" lon="4.56541">
        <ele>135.009827</ele>
        <time>2021-04-25T12:40:23Z</time>
      </trkpt>
      <trkpt lat="50.50929" lon="4.56567">
        <ele>135.499084</ele>
        <time>2021-04-25T12:40:39Z</time>
      </trkpt>
      <trkpt lat="50.50934" lon="4.56593">
        <ele>135.535233</ele>
        <time>2021-04-25T12:40:54Z</time>
      </trkpt>
      <trkpt lat="50.50956" lon="4.566">
        <ele>136.120743</ele>
        <time>2021-04-25T12:41:10Z</time>
      </trkpt>
      <trkpt lat="50.50977" lon="4.56612">
        <ele>136.421997</ele>
        <time>2021-04-25T12:41:26Z</time>
      </trkpt>
      <trkpt lat="50.50998" lon="4.56624">
        <ele>136.518753</ele>
        <time>2021-04-25T12:41:42Z</time>
      </trkpt>
      <trkpt lat="50.51019" lon="4.56634">
        <ele>137.664108</ele>
        <time>2021-04-25T12:41:57Z</time>
      </trkpt>
      <trkpt lat="50.51034" lon="4.56656">
        <ele>137.626556</ele>
        <time>2021-04-25T12:42:13Z</time>
      </trkpt>
      <trkpt lat="50.51048" lon="4.56684">
        <ele>137.753769</ele>
        <time>2021-04-25T12:42:28Z</time>
      </trkpt>
      <trkpt lat="50.51061" lon="4.56715">
        <ele>138.23288</ele>
        <time>2021-04-25T12:42:44Z</time>
      </trkpt>
      <trkpt lat="50.51074" lon="4.56741">
        <ele>138.668579</ele>
        <time>2021-04-25T12:43:00Z</time>
      </trkpt>
      <trkpt lat="50.51086" lon="4.56768">
        <ele>138.589188</ele>
        <time>2021-04-25T12:43:15Z</time>
      </trkpt>
      <trkpt lat="50.51097" lon="4.56797">
        <ele>137.93425</ele>
        <time>2021-04-25T12:43:30Z</time>
      </trkpt>
      <trkpt lat="50.51108" lon="4.56828">
        <ele>137.151535</ele>
        <time>2021-04-25T12:43:46Z</time>
      </trkpt>
      <trkpt lat="50.51119" lon="4.56857">
        <ele>136.719116</ele>
        <time>2021-04-25T12:44:02Z</time>
      </trkpt>
      <trkpt lat="50.51132" lon="4.56881">
        <ele>136.429138</ele>
        <time>2021-04-25T12:44:17Z</time>
      </trkpt>
      <trkpt lat="50.5115" lon="4.56895">
        <ele>136.260254</ele>
        <time>2021-04-25T12:44:32Z</time>
      </trkpt>
      <trkpt lat="50.51168" lon="4.56914">
        <ele>136.029602</ele>
        <time>2021-04-25T12:44:48Z</time>
      </trkpt>
      <trkpt lat="50.51181" lon="4.56924">
        <ele>135.830887</ele>
        <time>2021-04-25T12:45:03Z</time>
      </trkpt>
      <trkpt lat="50.51196" lon="4.56954">
        <ele>135.26059</ele>
        <time>2021-04-25T12:45:19Z</time>
      </trkpt>
      <trkpt lat="50.51213" lon="4.56977">
        <ele>134.959549</ele>
        <time>2021-04-25T12:45:35Z</time>
      </trkpt>
      <trkpt lat="50.51231" lon="4.57004">
        <ele>134.766663</ele>
        <time>2021-04-25T12:45:51Z</time>
      </trkpt>
      <trkpt lat="50.51246" lon="4.5703">
        <ele>134.946594</ele>
        <time>2021-04-25T12:46:07Z</time>
      </trkpt>
      <trkpt lat="50.51257" lon="4.5706">
        <ele>135.259827</ele>
        <time>2021-04-25T12:46:22Z</time>
      </trkpt>
      <trkpt lat="50.51269" lon="4.57093">
        <ele>135.55188</ele>
        <time>2021-04-25T12:46:38Z</time>
      </trkpt>
      <trkpt lat="50.51279" lon="4.57127">
        <ele>135.53241</ele>
        <time>2021-04-25T12:46:54Z</time>
      </trkpt>
      <trkpt lat="50.51289" lon="4.57163">
        <ele>135.461365</ele>
        <time>2021-04-25T12:47:10Z</time>
      </trkpt>
      <trkpt lat="50.51297" lon="4.57195">
        <ele>135.182449</ele>
        <time>2021-04-25T12:47:25Z</time>
      </trkpt>
      <trkpt lat="50.51318" lon="4.57208">
        <ele>135.528229</ele>
        <time>2021-04-25T12:47:41Z</time>
      </trkpt>
      <trkpt lat="50.51336" lon="4.57218">
        <ele>135.87146</ele>
        <time>2021-04-25T12:47:56Z</time>
      </trkpt>
      <trkpt lat="50.51354" lon="4.57234">
        <ele>136.142395</ele>
        <time>2021-04-25T12:48:11Z</time>
      </trkpt>
      <trkpt lat="50.51369" lon="4.57258">
        <ele>136.052643</ele>
        <time>2021-04-25T12:48:26Z</time>
      </trkpt>
      <trkpt lat="50.51382" lon="4.57287">
        <ele>135.587418</ele>
        <time>2021-04-25T12:48:42Z</time>
      </trkpt>
      <trkpt lat="50.514" lon="4.57312">
        <ele>135.338806</ele>
        <time>2021-04-25T12:48:57Z</time>
      </trkpt>
      <trkpt lat="50.51416" lon="4.57335">
        <ele>134.977295</ele>
        <time>2021-04-25T12:49:12Z</time>
      </trkpt>
      <trkpt lat="50.51437" lon="4.5732">
        <ele>135.642181</ele>
        <time>2021-04-25T12:49:28Z</time>
      </trkpt>
      <trkpt lat="50.51456" lon="4.57327">
        <ele>135.618469</ele>
        <time>2021-04-25T12:49:43Z</time>
      </trkpt>
      <trkpt lat="50.51474" lon="4.57357">
        <ele>135.489502</ele>
        <time>2021-04-25T12:49:59Z</time>
      </trkpt>
      <trkpt lat="50.51492" lon="4.57383">
        <ele>135.36528</ele>
        <time>2021-04-25T12:50:15Z</time>
      </trkpt>
      <trkpt lat="50.51509" lon="4.57409">
        <ele>135.289093</ele>
        <time>2021-04-25T12:50:30Z</time>
      </trkpt>
      <trkpt lat="50.51524" lon="4.57428">
        <ele>135.471634</ele>
        <time>2021-04-25T12:50:46Z</time>
      </trkpt>
      <trkpt lat="50.51539" lon="4.57405">
        <ele>136.001526</ele>
        <time>2021-04-25T12:51:01Z</time>
      </trkpt>
      <trkpt lat="50.51556" lon="4.57381">
        <ele>136.482819</ele>
        <time>2021-04-25T12:51:16Z</time>
      </trkpt>
      <trkpt lat="50.51574" lon="4.5736">
        <ele>136.851715</ele>
        <time>2021-04-25T12:51:31Z</time>
      </trkpt>
      <trkpt lat="50.51591" lon="4.57338">
        <ele>137</ele>
        <time>2021-04-25T12:51:47Z</time>
      </trkpt>
      <trkpt lat="50.51608" lon="4.57363">
        <ele>137</ele>
        <time>2021-04-25T12:52:02Z</time>
      </trkpt>
      <trkpt lat="50.51621" lon="4.57389">
        <ele>137</ele>
        <time>2021-04-25T12:52:18Z</time>
      </trkpt>
      <trkpt lat="50.51636" lon="4.57415">
        <ele>137</ele>
        <time>2021-04-25T12:52:33Z</time>
      </trkpt>
      <trkpt lat="50.51655" lon="4.57399">
        <ele>137</ele>
        <time>2021-04-25T12:52:49Z</time>
      </trkpt>
      <trkpt lat="50.51675" lon="4.57379">
        <ele>137.352234</ele>
        <time>2021-04-25T12:53:05Z</time>
      </trkpt>
      <trkpt lat="50.51686" lon="4.57348">
        <ele>137.868591</ele>
        <time>2021-04-25T12:53:20Z</time>
      </trkpt>
      <trkpt lat="50.51707" lon="4.57344">
        <ele>138.88562</ele>
        <time>2021-04-25T12:53:36Z</time>
      </trkpt>
      <trkpt lat="50.51732" lon="4.57347">
        <ele>140.015762</ele>
        <time>2021-04-25T12:53:52Z</time>
      </trkpt>
      <trkpt lat="50.51755" lon="4.57349">
        <ele>141.007843</ele>
        <time>2021-04-25T12:54:08Z</time>
      </trkpt>
      <trkpt lat="50.51775" lon="4.57342">
        <ele>141.813431</ele>
        <time>2021-04-25T12:54:23Z</time>
      </trkpt>
      <trkpt lat="50.51796" lon="4.57336">
        <ele>142.631744</ele>
        <time>2021-04-25T12:54:38Z</time>
      </trkpt>
      <trkpt lat="50.51805" lon="4.5732">
        <ele>143.144714</ele>
        <time>2021-04-25T12:55:40Z</time>
      </trkpt>
    </trkseg>
  </trk>
</gpx>